createdAt,value
2019-05-03T00:01:30.207Z,20.43
2019-05-03T00:03:33.919Z,20.47
2019-05-03T00:05:39.359Z,24.73
2019-05-03T00:07:43.077Z,25.00
2019-05-03T00:09:47.117Z,21.47
2019-05-03T00:11:52.728Z,23.90
2019-05-03T00:13:56.187Z,29.33
2019-05-03T00:16:07.724Z,29.37
2019-05-03T00:18:11.757Z,25.20
2019-05-03T00:20:15.711Z,26.73
2019-05-03T00:22:21.578Z,23.97
2019-05-03T00:24:24.820Z,25.53
2019-05-03T00:26:28.487Z,28.30
2019-05-03T00:28:32.212Z,25.33
2019-05-03T00:30:36.101Z,30.10
2019-05-03T00:32:39.775Z,26.27
2019-05-03T00:34:53.901Z,25.83
2019-05-03T00:37:02.207Z,24.70
2019-05-03T00:39:23.631Z,31.87
2019-05-03T00:41:27.347Z,19.30
2019-05-03T00:43:31.768Z,19.30
2019-05-03T00:45:35.614Z,22.93
2019-05-03T00:47:39.589Z,20.30
2019-05-03T00:49:43.180Z,19.87
2019-05-03T00:51:46.872Z,21.00
2019-05-03T00:53:50.479Z,19.63
2019-05-03T00:55:55.500Z,20.67
2019-05-03T00:57:59.139Z,23.47
2019-05-03T01:00:02.971Z,25.10
2019-05-03T01:02:06.715Z,28.60
2019-05-03T01:04:11.837Z,26.57
2019-05-03T01:06:15.785Z,24.17
2019-05-03T01:08:19.471Z,24.20
2019-05-03T01:10:28.076Z,28.07
2019-05-03T01:12:32.342Z,30.00
2019-05-03T01:14:37.943Z,29.03
2019-05-03T01:16:42.723Z,21.20
2019-05-03T01:18:46.681Z,19.43
2019-05-03T01:20:51.873Z,19.70
2019-05-03T01:22:55.740Z,19.20
2019-05-03T01:24:59.391Z,20.67
2019-05-03T01:27:03.167Z,21.40
2019-05-03T01:29:06.884Z,23.50
2019-05-03T01:31:11.958Z,20.23
2019-05-03T01:33:15.829Z,19.70
2019-05-03T01:35:21.756Z,19.53
2019-05-03T01:37:24.920Z,18.63
2019-05-03T01:39:28.672Z,26.00
2019-05-03T01:41:32.433Z,24.53
2019-05-03T01:43:36.154Z,21.77
2019-05-03T01:45:39.721Z,23.17
2019-05-03T01:47:52.566Z,22.00
2019-05-03T01:49:58.042Z,26.83
2019-05-03T01:52:12.823Z,18.97
2019-05-03T01:54:16.475Z,22.90
2019-05-03T01:56:22.185Z,23.00
2019-05-03T01:58:25.633Z,22.67
2019-05-03T02:00:31.895Z,23.03
2019-05-03T02:02:37.285Z,18.00
2019-05-03T02:04:53.237Z,18.70
2019-05-03T02:06:56.635Z,21.47
2019-05-03T02:09:01.616Z,16.43
2019-05-03T02:11:05.485Z,15.63
2019-05-03T02:13:09.262Z,16.77
2019-05-03T02:15:12.994Z,17.97
2019-05-03T02:17:16.658Z,18.30
2019-05-03T02:19:21.984Z,18.13
2019-05-03T02:21:25.658Z,15.70
2019-05-03T02:23:29.316Z,16.30
2019-05-03T02:25:33.077Z,17.33
2019-05-03T02:27:36.895Z,15.73
2019-05-03T02:29:41.841Z,15.93
2019-05-03T02:31:45.716Z,17.07
2019-05-03T02:33:49.362Z,15.33
2019-05-03T02:35:53.436Z,19.33
2019-05-03T02:37:57.237Z,16.40
2019-05-03T02:40:04.101Z,12.70
2019-05-03T02:42:11.162Z,15.80
2019-05-03T02:44:15.466Z,13.63
2019-05-03T02:46:36.282Z,14.07
2019-05-03T02:48:50.507Z,12.47
2019-05-03T02:50:56.063Z,16.07
2019-05-03T02:52:59.639Z,15.07
2019-05-03T02:55:08.356Z,15.53
2019-05-03T02:57:12.015Z,14.83
2019-05-03T02:59:16.074Z,15.63
2019-05-03T03:01:20.231Z,15.87
2019-05-03T03:03:25.514Z,14.70
2019-05-03T03:05:29.436Z,15.77
2019-05-03T03:07:37.519Z,14.23
2019-05-03T03:09:40.466Z,14.20
2019-05-03T03:11:46.798Z,16.20
2019-05-03T03:13:52.087Z,15.27
2019-05-03T03:15:57.197Z,12.63
2019-05-03T03:18:01.590Z,16.30
2019-05-03T03:20:09.763Z,15.23
2019-05-03T03:22:16.237Z,14.23
2019-05-03T03:24:20.748Z,18.83
2019-05-03T03:26:37.537Z,16.13
2019-05-03T03:28:36.005Z,16.07
2019-05-03T03:31:00.850Z,18.83
2019-05-03T03:33:08.861Z,17.30
2019-05-03T03:35:20.725Z,18.73
2019-05-03T03:37:26.008Z,17.73
2019-05-03T03:39:29.986Z,24.90
2019-05-03T03:41:35.318Z,18.00
2019-05-03T03:43:39.732Z,16.53
2019-05-03T03:45:45.908Z,19.90
2019-05-03T03:47:52.628Z,18.37
2019-05-03T03:49:58.192Z,21.93
2019-05-03T03:52:06.045Z,18.90
2019-05-03T03:54:12.046Z,18.43
2019-05-03T03:56:18.621Z,16.13
2019-05-03T03:58:23.224Z,20.00
2019-05-03T04:00:27.917Z,17.33
2019-05-03T04:02:31.766Z,29.03
2019-05-03T04:04:36.031Z,21.10
2019-05-03T04:06:42.675Z,16.17
2019-05-03T04:08:46.475Z,20.33
2019-05-03T04:10:50.371Z,17.00
2019-05-03T04:12:55.903Z,20.13
2019-05-03T04:15:16.180Z,16.67
2019-05-03T04:17:28.112Z,21.30
2019-05-03T04:19:36.610Z,17.00
2019-05-03T04:21:40.531Z,21.27
2019-05-03T04:23:45.837Z,20.13
2019-05-03T04:25:49.889Z,19.80
2019-05-03T04:27:55.933Z,22.20
2019-05-03T04:29:59.005Z,19.00
2019-05-03T04:32:06.000Z,19.20
2019-05-03T04:34:09.143Z,14.27
2019-05-03T04:36:15.754Z,18.03
2019-05-03T04:38:18.354Z,21.20
2019-05-03T04:40:22.113Z,21.20
2019-05-03T04:42:25.901Z,24.37
2019-05-03T04:44:29.766Z,16.30
2019-05-03T04:46:35.654Z,17.10
2019-05-03T04:48:38.812Z,18.10
2019-05-03T04:50:42.701Z,19.63
2019-05-03T04:52:48.011Z,17.20
2019-05-03T04:54:56.825Z,17.97
2019-05-03T04:57:00.758Z,16.30
2019-05-03T04:59:05.217Z,21.13
2019-05-03T05:01:08.933Z,20.70
2019-05-03T05:03:14.917Z,17.13
2019-05-03T05:05:17.815Z,16.70
2019-05-03T05:07:21.523Z,18.20
2019-05-03T05:09:25.895Z,18.87
2019-05-03T05:11:29.798Z,18.93
2019-05-03T05:13:35.594Z,17.73
2019-05-03T05:15:38.838Z,16.57
2019-05-03T05:17:56.422Z,15.97
2019-05-03T05:20:10.911Z,19.23
2019-05-03T05:22:16.353Z,15.10
2019-05-03T05:24:20.080Z,20.40
2019-05-03T05:26:25.525Z,20.43
2019-05-03T05:28:44.613Z,18.27
2019-05-03T05:30:48.257Z,19.27
2019-05-03T05:32:51.935Z,14.27
2019-05-03T05:34:55.688Z,16.27
2019-05-03T05:36:59.433Z,15.90
2019-05-03T05:39:05.146Z,17.27
2019-05-03T05:41:09.048Z,16.10
2019-05-03T05:43:12.852Z,14.10
2019-05-03T05:45:16.671Z,14.33
2019-05-03T05:47:30.904Z,14.00
2019-05-03T05:49:45.701Z,11.70
2019-05-03T05:51:49.434Z,15.63
2019-05-03T05:53:54.910Z,13.50
2019-05-03T05:56:12.645Z,17.53
2019-05-03T05:58:25.667Z,13.20
2019-05-03T06:00:30.749Z,12.13
2019-05-03T06:02:35.966Z,11.97
2019-05-03T06:04:39.723Z,10.63
2019-05-03T06:06:47.891Z,13.60
2019-05-03T06:08:54.733Z,12.40
2019-05-03T06:11:00.169Z,11.27
2019-05-03T06:13:11.645Z,13.77
2019-05-03T06:15:34.499Z,8.80
2019-05-03T06:17:42.772Z,9.80
2019-05-03T06:19:51.092Z,9.50
2019-05-03T06:21:59.174Z,9.83
2019-05-03T06:24:10.178Z,10.03
2019-05-03T06:26:31.803Z,8.07
2019-05-03T06:28:35.838Z,8.37
2019-05-03T06:30:57.583Z,13.57
2019-05-03T06:33:01.343Z,11.53
2019-05-03T06:35:06.886Z,9.83
2019-05-03T06:37:18.314Z,8.87
2019-05-03T06:39:21.892Z,9.20
2019-05-03T06:41:25.660Z,8.93
2019-05-03T06:43:29.372Z,11.70
2019-05-03T06:45:33.094Z,9.33
2019-05-03T06:47:40.410Z,10.90
2019-05-03T06:49:44.787Z,6.53
2019-05-03T06:51:49.915Z,11.70
2019-05-03T06:53:54.763Z,9.70
2019-05-03T06:55:58.470Z,8.27
2019-05-03T06:58:02.198Z,7.47
2019-05-03T07:00:21.476Z,10.73
2019-05-03T07:02:35.856Z,7.60
2019-05-03T07:04:53.456Z,10.00
2019-05-03T07:06:58.762Z,8.40
2019-05-03T07:09:05.331Z,10.23
2019-05-03T07:11:10.194Z,7.10
2019-05-03T07:13:15.206Z,8.07
2019-05-03T07:15:19.080Z,7.10
2019-05-03T07:17:24.695Z,8.13
2019-05-03T07:19:28.346Z,6.30
2019-05-03T07:21:32.282Z,5.33
2019-05-03T07:23:36.163Z,5.57
2019-05-03T07:25:39.846Z,5.30
2019-05-03T07:27:45.218Z,4.10
2019-05-03T07:29:49.052Z,4.73
2019-05-03T07:31:54.757Z,9.83
2019-05-03T07:33:58.122Z,4.83
2019-05-03T07:36:01.826Z,6.27
2019-05-03T07:38:05.542Z,5.77
2019-05-03T07:40:09.456Z,4.80
2019-05-03T07:42:15.089Z,5.10
2019-05-03T07:44:18.526Z,4.63
2019-05-03T07:46:22.182Z,4.87
2019-05-03T07:48:25.894Z,4.63
2019-05-03T07:50:32.956Z,12.67
2019-05-03T07:52:35.008Z,6.00
2019-05-03T07:54:38.638Z,6.63
2019-05-03T07:56:49.676Z,4.13
2019-05-03T07:59:02.882Z,5.03
2019-05-03T08:01:08.867Z,5.07
2019-05-03T08:03:09.172Z,11.40
2019-05-03T08:05:12.961Z,4.50
2019-05-03T08:07:22.337Z,6.70
2019-05-03T08:09:22.155Z,5.73
2019-05-03T08:11:25.865Z,5.90
2019-05-03T08:13:29.531Z,9.97
2019-05-03T08:15:34.783Z,7.40
2019-05-03T08:17:38.590Z,20.97
2019-05-03T08:19:44.654Z,11.27
2019-05-03T08:21:47.669Z,8.00
2019-05-03T08:23:51.421Z,6.07
2019-05-03T08:25:55.750Z,6.33
2019-05-03T08:27:59.646Z,3.60
2019-05-03T08:30:05.791Z,6.70
2019-05-03T08:32:15.329Z,3.67
2019-05-03T08:34:37.069Z,3.30
2019-05-03T08:36:57.376Z,5.10
2019-05-03T08:39:01.163Z,4.50
2019-05-03T08:41:06.561Z,6.40
2019-05-03T08:43:10.307Z,3.80
2019-05-03T08:45:14.793Z,5.07
2019-05-03T08:47:18.625Z,6.63
2019-05-03T08:49:22.344Z,5.23
2019-05-03T08:51:26.045Z,5.47
2019-05-03T08:53:29.797Z,3.40
2019-05-03T08:55:35.193Z,5.73
2019-05-03T08:57:38.817Z,3.10
2019-05-03T08:59:44.536Z,3.77
2019-05-03T09:01:47.866Z,4.03
2019-05-03T09:03:51.467Z,4.00
2019-05-03T09:05:56.513Z,3.80
2019-05-03T09:08:00.340Z,5.03
2019-05-03T09:10:24.929Z,5.33
2019-05-03T09:12:30.435Z,4.10
2019-05-03T09:14:42.650Z,5.63
2019-05-03T09:16:39.520Z,8.53
2019-05-03T09:18:45.267Z,4.20
2019-05-03T09:20:48.907Z,5.80
2019-05-03T09:22:54.603Z,7.37
2019-05-03T09:24:57.923Z,4.00
2019-05-03T09:27:01.628Z,5.23
2019-05-03T09:29:05.647Z,8.30
2019-05-03T09:31:09.665Z,3.63
2019-05-03T09:33:15.145Z,4.83
2019-05-03T09:35:29.844Z,4.70
2019-05-03T09:37:24.975Z,4.23
2019-05-03T09:39:28.809Z,4.27
2019-05-03T09:41:34.607Z,6.87
2019-05-03T09:43:37.971Z,4.13
2019-05-03T09:45:41.589Z,4.33
2019-05-03T09:47:45.456Z,4.53
2019-05-03T09:49:49.097Z,5.40
2019-05-03T09:51:54.645Z,5.70
2019-05-03T09:53:59.667Z,4.97
2019-05-03T09:56:05.016Z,3.50
2019-05-03T09:58:08.703Z,4.70
2019-05-03T10:00:13.398Z,3.90
2019-05-03T10:02:17.130Z,4.30
2019-05-03T10:04:21.235Z,5.77
2019-05-03T10:06:25.143Z,4.63
2019-05-03T10:08:28.901Z,4.63
2019-05-03T10:10:35.684Z,5.77
2019-05-03T10:12:39.487Z,6.63
2019-05-03T10:14:45.115Z,4.50
2019-05-03T10:16:50.275Z,4.33
2019-05-03T10:18:55.300Z,6.03
2019-05-03T10:20:59.251Z,6.13
2019-05-03T10:23:05.315Z,5.40
2019-05-03T10:25:10.825Z,4.90
2019-05-03T10:27:15.231Z,4.70
2019-05-03T10:29:21.259Z,5.50
2019-05-03T10:31:26.612Z,5.73
2019-05-03T10:33:44.977Z,8.93
2019-05-03T10:35:48.870Z,6.50
2019-05-03T10:37:54.749Z,5.17
2019-05-03T10:39:59.024Z,5.70
2019-05-03T10:42:04.680Z,5.07
2019-05-03T10:44:08.154Z,9.43
2019-05-03T10:46:11.797Z,4.83
2019-05-03T10:48:15.680Z,6.23
2019-05-03T10:50:19.707Z,3.67
2019-05-03T10:52:37.082Z,5.43
2019-05-03T10:54:40.783Z,8.17
2019-05-03T10:56:48.811Z,7.97
2019-05-03T10:58:54.927Z,5.00
2019-05-03T11:00:58.767Z,4.40
2019-05-03T11:03:05.333Z,10.70
2019-05-03T11:05:09.152Z,3.83
2019-05-03T11:07:14.761Z,5.43
2019-05-03T11:09:18.120Z,5.40
2019-05-03T11:11:21.839Z,4.17
2019-05-03T11:13:26.444Z,5.53
2019-05-03T11:15:30.278Z,5.13
2019-05-03T11:17:34.816Z,5.10
2019-05-03T11:19:38.643Z,4.47
2019-05-03T11:21:42.389Z,6.13
2019-05-03T11:23:46.175Z,4.10
2019-05-03T11:25:49.834Z,3.90
2019-05-03T11:27:55.285Z,5.40
2019-05-03T11:29:59.346Z,5.40
2019-05-03T11:32:09.469Z,4.57
2019-05-03T11:34:11.986Z,5.13
2019-05-03T11:36:26.237Z,4.20
2019-05-03T11:38:31.584Z,7.90
2019-05-03T11:40:35.674Z,3.87
2019-05-03T11:42:40.226Z,5.37
2019-05-03T11:44:44.640Z,4.00
2019-05-03T11:46:48.513Z,4.30
2019-05-03T11:48:52.190Z,5.20
2019-05-03T11:50:55.939Z,5.80
2019-05-03T11:52:59.581Z,4.30
2019-05-03T11:55:10.444Z,4.20
2019-05-03T11:57:10.203Z,4.63
2019-05-03T11:59:14.791Z,5.07
2019-05-03T12:01:20.512Z,4.23
2019-05-03T12:03:32.061Z,3.37
2019-05-03T12:05:35.801Z,4.00
2019-05-03T12:07:40.245Z,9.80
2019-05-03T12:09:45.230Z,5.40
2019-05-03T12:11:48.963Z,4.93
2019-05-03T12:14:02.380Z,4.70
2019-05-03T12:16:00.417Z,3.93
2019-05-03T12:18:06.637Z,7.10
2019-05-03T12:20:12.714Z,5.20
2019-05-03T12:22:17.081Z,7.00
2019-05-03T12:24:21.617Z,11.63
2019-05-03T12:26:40.307Z,8.80
2019-05-03T12:28:31.477Z,4.60
2019-05-03T12:30:35.674Z,4.53
2019-05-03T12:32:39.554Z,4.13
2019-05-03T12:34:43.177Z,4.33
2019-05-03T12:36:47.042Z,3.97
2019-05-03T12:38:54.638Z,4.57
2019-05-03T12:40:58.095Z,4.67
2019-05-03T12:43:01.787Z,6.07
2019-05-03T12:45:07.059Z,4.80
2019-05-03T12:47:10.759Z,6.00
2019-05-03T12:49:15.517Z,5.07
2019-05-03T12:51:20.811Z,8.10
2019-05-03T12:53:25.086Z,8.37
2019-05-03T12:55:28.888Z,10.17
2019-05-03T12:57:34.360Z,6.73
2019-05-03T12:59:44.898Z,5.27
2019-05-03T13:01:58.896Z,7.33
2019-05-03T13:04:06.951Z,6.63
2019-05-03T13:06:10.684Z,4.43
2019-05-03T13:08:37.009Z,5.67
2019-05-03T13:10:40.894Z,6.50
2019-05-03T13:12:52.887Z,7.13
2019-05-03T13:14:51.602Z,4.60
2019-05-03T13:16:55.364Z,3.60
2019-05-03T13:18:59.082Z,7.47
2019-05-03T13:21:05.379Z,3.33
2019-05-03T13:23:08.394Z,3.87
2019-05-03T13:25:15.023Z,4.33
2019-05-03T13:27:18.665Z,3.90
2019-05-03T13:29:22.339Z,4.93
2019-05-03T13:31:26.041Z,3.63
2019-05-03T13:33:29.947Z,4.97
2019-05-03T13:35:35.155Z,11.10
2019-05-03T13:37:39.179Z,5.10
2019-05-03T13:39:44.913Z,10.33
2019-05-03T13:41:48.192Z,8.20
2019-05-03T13:43:51.928Z,5.07
2019-05-03T13:45:55.772Z,5.90
2019-05-03T13:47:59.526Z,5.67
2019-05-03T13:50:04.917Z,5.50
2019-05-03T13:52:08.744Z,3.80
2019-05-03T13:54:12.426Z,3.40
2019-05-03T13:56:16.205Z,7.40
2019-05-03T13:58:20.028Z,4.20
2019-05-03T14:00:24.639Z,3.20
2019-05-03T14:02:28.625Z,3.40
2019-05-03T14:04:35.774Z,3.63
2019-05-03T14:06:37.843Z,5.07
2019-05-03T14:08:41.613Z,3.67
2019-05-03T14:10:45.745Z,5.83
2019-05-03T14:12:49.754Z,3.30
2019-05-03T14:14:55.758Z,4.73
2019-05-03T14:16:58.890Z,4.50
2019-05-03T14:19:05.251Z,6.63
2019-05-03T14:21:19.662Z,5.03
2019-05-03T14:23:25.203Z,4.03
2019-05-03T14:25:28.811Z,3.50
2019-05-03T14:27:34.716Z,5.90
2019-05-03T14:29:38.050Z,6.17
2019-05-03T14:31:41.805Z,5.20
2019-05-03T14:33:45.494Z,7.03
2019-05-03T14:35:49.077Z,5.53
2019-05-03T14:38:01.861Z,5.00
2019-05-03T14:40:06.994Z,9.43
2019-05-03T14:42:10.709Z,3.87
2019-05-03T14:44:17.634Z,4.40
2019-05-03T14:46:30.083Z,4.30
2019-05-03T14:48:25.128Z,4.47
2019-05-03T14:50:28.860Z,8.83
2019-05-03T14:52:34.616Z,3.90
2019-05-03T14:54:39.668Z,3.00
2019-05-03T14:57:02.154Z,3.03
2019-05-03T14:59:23.505Z,2.77
2019-05-03T15:01:28.831Z,4.33
2019-05-03T15:03:32.624Z,2.90
2019-05-03T15:05:36.857Z,3.23
2019-05-03T15:07:40.432Z,3.13
2019-05-03T15:09:45.797Z,3.40
2019-05-03T15:11:49.612Z,3.60
2019-05-03T15:13:55.037Z,3.27
2019-05-03T15:15:58.655Z,6.67
2019-05-03T15:18:02.378Z,6.13
2019-05-03T15:20:09.202Z,4.70
2019-05-03T15:22:14.643Z,4.50
2019-05-03T15:24:19.089Z,3.40
2019-05-03T15:26:24.703Z,9.73
2019-05-03T15:28:28.474Z,3.10
2019-05-03T15:30:32.150Z,8.10
2019-05-03T15:32:35.918Z,3.23
2019-05-03T15:34:39.732Z,7.70
2019-05-03T15:36:45.058Z,8.20
2019-05-03T15:38:49.234Z,3.50
2019-05-03T15:40:54.731Z,5.10
2019-05-03T15:43:05.888Z,18.43
2019-05-03T15:45:28.517Z,3.53
2019-05-03T15:47:36.909Z,11.60
2019-05-03T15:49:40.709Z,4.37
2019-05-03T15:51:46.296Z,4.23
2019-05-03T15:53:50.711Z,3.30
2019-05-03T15:55:55.162Z,4.40
2019-05-03T15:57:58.999Z,9.20
2019-05-03T16:00:05.442Z,3.40
2019-05-03T16:02:08.740Z,4.50
2019-05-03T16:04:14.237Z,4.53
2019-05-03T16:06:18.148Z,5.50
2019-05-03T16:08:24.776Z,4.90
2019-05-03T16:10:28.922Z,4.33
2019-05-03T16:12:34.462Z,5.40
2019-05-03T16:14:38.578Z,4.00
2019-05-03T16:16:44.993Z,5.13
2019-05-03T16:18:48.863Z,11.90
2019-05-03T16:20:54.553Z,3.50
2019-05-03T16:22:58.535Z,3.77
2019-05-03T16:25:02.354Z,6.83
2019-05-03T16:27:10.724Z,10.23
2019-05-03T16:29:15.044Z,8.07
2019-05-03T16:31:20.799Z,3.50
2019-05-03T16:33:28.011Z,3.37
2019-05-03T16:35:30.171Z,5.63
2019-05-03T16:37:34.510Z,5.90
2019-05-03T16:39:38.329Z,3.07
2019-05-03T16:41:42.241Z,3.07
2019-05-03T16:43:45.885Z,4.33
2019-05-03T16:45:49.870Z,4.13
2019-05-03T16:47:55.879Z,5.17
2019-05-03T16:49:59.501Z,5.93
2019-05-03T16:52:05.616Z,4.77
2019-05-03T16:54:09.380Z,4.33
2019-05-03T16:56:16.805Z,3.77
2019-05-03T16:58:18.619Z,5.10
2019-05-03T17:00:25.004Z,4.30
2019-05-03T17:02:28.352Z,6.40
2019-05-03T17:04:34.574Z,12.30
2019-05-03T17:06:42.915Z,5.87
2019-05-03T17:08:48.275Z,4.90
2019-05-03T17:10:54.504Z,5.77
2019-05-03T17:12:59.256Z,5.47
2019-05-03T17:15:04.998Z,6.00
2019-05-03T17:17:08.752Z,6.67
2019-05-03T17:19:12.628Z,5.43
2019-05-03T17:21:16.440Z,19.10
2019-05-03T17:23:20.109Z,13.63
2019-05-03T17:25:24.544Z,7.03
2019-05-03T17:27:28.348Z,42.70
2019-05-03T17:29:32.072Z,26.13
2019-05-03T17:31:37.027Z,16.60
2019-05-03T17:33:50.630Z,14.17
2019-05-03T17:35:46.220Z,9.37
2019-05-03T17:37:49.978Z,11.00
2019-05-03T17:39:57.800Z,13.70
2019-05-03T17:42:09.070Z,11.40
2019-05-03T17:44:29.712Z,19.47
2019-05-03T17:46:34.746Z,9.50
2019-05-03T17:48:38.803Z,11.17
2019-05-03T17:50:42.725Z,11.87
2019-05-03T17:53:05.228Z,12.23
2019-05-03T17:55:16.701Z,11.40
2019-05-03T17:57:24.789Z,5.87
2019-05-03T17:59:31.295Z,10.27
2019-05-03T18:01:44.482Z,12.90
2019-05-03T18:04:05.652Z,9.23
2019-05-03T18:06:04.607Z,9.20
2019-05-03T18:08:09.679Z,16.70
2019-05-03T18:10:15.161Z,12.37
2019-05-03T18:12:18.985Z,15.83
2019-05-03T18:14:22.804Z,11.70
2019-05-03T18:16:27.192Z,12.03
2019-05-03T18:18:30.901Z,9.27
2019-05-03T18:20:34.705Z,9.40
2019-05-03T18:22:40.178Z,7.57
2019-05-03T18:24:45.686Z,6.53
2019-05-03T18:26:49.381Z,7.47
2019-05-03T18:28:52.977Z,6.40
2019-05-03T18:30:56.696Z,6.17
2019-05-03T18:33:00.542Z,6.40
2019-05-03T18:35:05.449Z,5.87
2019-05-03T18:37:09.091Z,4.90
2019-05-03T18:39:14.667Z,8.33
2019-05-03T18:41:18.450Z,6.03
2019-05-03T18:43:40.282Z,6.57
2019-05-03T18:45:54.904Z,12.43
2019-05-03T18:47:58.643Z,8.17
2019-05-03T18:50:04.305Z,7.00
2019-05-03T18:52:08.115Z,6.80
2019-05-03T18:54:11.926Z,5.53
2019-05-03T18:56:15.972Z,7.83
2019-05-03T18:58:21.968Z,5.80
2019-05-03T19:00:26.305Z,7.00
2019-05-03T19:02:29.890Z,7.20
2019-05-03T19:04:38.091Z,7.67
2019-05-03T19:06:41.865Z,5.10
2019-05-03T19:09:02.218Z,7.07
2019-05-03T19:11:07.563Z,5.23
2019-05-03T19:13:15.723Z,4.80
2019-05-03T19:15:19.498Z,4.83
2019-05-03T19:17:27.841Z,8.90
2019-05-03T19:19:35.137Z,5.83
2019-05-03T19:21:39.471Z,5.03
2019-05-03T19:23:44.766Z,6.53
2019-05-03T19:25:49.598Z,6.63
2019-05-03T19:27:54.527Z,5.80
2019-05-03T19:29:58.320Z,6.17
2019-05-03T19:32:02.133Z,8.33
2019-05-03T19:34:06.113Z,7.50
2019-05-03T19:36:10.065Z,7.57
2019-05-03T19:38:15.177Z,11.60
2019-05-03T19:40:18.986Z,23.27
2019-05-03T19:42:24.826Z,9.63
2019-05-03T19:44:28.898Z,14.10
2019-05-03T19:46:32.545Z,20.20
2019-05-03T19:48:36.198Z,18.83
2019-05-03T19:50:40.476Z,17.33
2019-05-03T19:53:01.985Z,17.93
2019-05-03T19:55:08.807Z,19.20
2019-05-03T19:57:15.191Z,15.60
2019-05-03T19:59:37.210Z,16.60
2019-05-03T20:01:51.108Z,18.67
2019-05-03T20:03:56.464Z,13.17
2019-05-03T20:06:10.981Z,15.30
2019-05-03T20:08:24.907Z,8.13
2019-05-03T20:10:30.427Z,6.60
2019-05-03T20:12:35.370Z,6.33
2019-05-03T20:14:39.057Z,7.40
2019-05-03T20:16:44.871Z,7.57
2019-05-03T20:18:48.819Z,8.50
2019-05-03T20:20:55.195Z,6.50
2019-05-03T20:22:59.073Z,6.50
2019-05-03T20:25:04.613Z,7.80
2019-05-03T20:27:08.483Z,8.67
2019-05-03T20:29:14.695Z,12.07
2019-05-03T20:31:18.438Z,8.10
2019-05-03T20:33:24.194Z,9.17
2019-05-03T20:35:28.764Z,6.30
2019-05-03T20:37:34.252Z,6.87
2019-05-03T20:39:38.226Z,6.87
2019-05-03T20:41:45.365Z,6.80
2019-05-03T20:44:05.229Z,7.00
2019-05-03T20:46:11.161Z,6.33
2019-05-03T20:48:17.998Z,7.40
2019-05-03T20:50:21.943Z,8.60
2019-05-03T20:52:26.152Z,9.57
2019-05-03T20:54:31.111Z,5.70
2019-05-03T20:56:35.345Z,6.57
2019-05-03T20:58:44.516Z,6.37
2019-05-03T21:00:47.852Z,5.03
2019-05-03T21:02:56.607Z,7.97
2019-05-03T21:04:57.346Z,8.60
2019-05-03T21:07:04.600Z,6.43
2019-05-03T21:09:08.323Z,9.70
2019-05-03T21:11:12.436Z,10.50
2019-05-03T21:13:16.505Z,11.20
2019-05-03T21:15:22.302Z,10.23
2019-05-03T21:17:28.074Z,7.60
2019-05-03T21:19:36.840Z,12.03
2019-05-03T21:21:42.165Z,9.30
2019-05-03T21:23:50.236Z,6.80
2019-05-03T21:26:13.043Z,6.90
2019-05-03T21:28:12.828Z,6.33
2019-05-03T21:30:16.863Z,7.23
2019-05-03T21:32:20.659Z,12.13
2019-05-03T21:34:25.172Z,10.70
2019-05-03T21:36:29.133Z,10.27
2019-05-03T21:38:32.810Z,9.07
2019-05-03T21:40:36.535Z,7.33
2019-05-03T21:42:40.119Z,7.60
2019-05-03T21:44:44.806Z,10.00
2019-05-03T21:46:50.276Z,6.97
2019-05-03T21:49:04.640Z,6.93
2019-05-03T21:51:08.246Z,8.67
2019-05-03T21:53:11.882Z,10.17
2019-05-03T21:55:15.613Z,6.10
2019-05-03T21:57:19.245Z,8.73
2019-05-03T21:59:26.364Z,8.87
2019-05-03T22:01:28.327Z,7.93
2019-05-03T22:03:32.021Z,6.87
2019-05-03T22:05:35.609Z,6.70
2019-05-03T22:07:39.381Z,7.33
2019-05-03T22:09:45.160Z,8.20
2019-05-03T22:11:48.452Z,6.83
2019-05-03T22:13:54.229Z,10.40
2019-05-03T22:16:04.902Z,8.73
2019-05-03T22:18:18.831Z,6.47
2019-05-03T22:20:27.069Z,7.50
2019-05-03T22:22:34.132Z,8.60
2019-05-03T22:24:42.165Z,5.70
2019-05-03T22:27:04.843Z,8.83
2019-05-03T22:29:08.267Z,6.07
2019-05-03T22:31:11.894Z,6.07
2019-05-03T22:33:15.529Z,6.10
2019-05-03T22:35:19.585Z,7.43
2019-05-03T22:37:25.215Z,8.33
2019-05-03T22:39:29.169Z,7.70
2019-05-03T22:41:34.636Z,6.87
2019-05-03T22:43:38.094Z,7.83
2019-05-03T22:45:41.682Z,7.63
2019-05-03T22:47:45.361Z,13.03
2019-05-03T22:49:49.648Z,8.67
2019-05-03T22:51:54.461Z,9.87
2019-05-03T22:53:58.897Z,8.87
2019-05-03T22:56:04.744Z,7.23
2019-05-03T22:58:08.073Z,7.40
2019-05-03T23:00:12.083Z,9.57
2019-05-03T23:02:17.217Z,9.67
2019-05-03T23:04:21.021Z,10.90
2019-05-03T23:06:25.187Z,6.30
2019-05-03T23:08:28.770Z,10.73
2019-05-03T23:10:34.735Z,6.53
2019-05-03T23:12:37.800Z,7.00
2019-05-03T23:14:41.516Z,7.00
2019-05-03T23:16:45.166Z,6.90
2019-05-03T23:18:48.777Z,7.53
2019-05-03T23:20:56.752Z,8.43
2019-05-03T23:23:01.814Z,7.60
2019-05-03T23:25:07.052Z,9.93
2019-05-03T23:27:10.765Z,9.33
2019-05-03T23:29:14.441Z,6.70
2019-05-03T23:31:18.317Z,8.97
2019-05-03T23:33:21.932Z,10.93
2019-05-03T23:35:25.644Z,6.90
2019-05-03T23:37:29.370Z,7.00
2019-05-03T23:39:52.443Z,10.90
2019-05-03T23:41:56.172Z,8.60
2019-05-03T23:43:59.749Z,10.50
2019-05-03T23:46:05.089Z,9.93
2019-05-03T23:48:08.873Z,11.20
2019-05-03T23:50:14.760Z,9.80
2019-05-03T23:52:20.087Z,11.30
2019-05-03T23:54:24.663Z,8.10
2019-05-03T23:56:28.520Z,8.57
2019-05-03T23:58:32.202Z,8.47
